This is the latest recevied weather packets stored in our database for station/object S55YIZ-7. If no packets are shown the sender has not sent any weather packets the latest 10 day(s).
| Time | Temp. | Humidity | Pressure | Rain* | Wind** | Luminosity | Snow |
|---|---|---|---|---|---|---|---|
| 1777478067 | 14.44° C | 70% | 1018.1 hPa | - | - | - | - |
| 1777477167 | 15° C | 71% | 1017.8 hPa | - | - | - | - |
| 1777476267 | 15° C | 74% | 1017.8 hPa | - | - | - | - |
| 1777475367 | 14.44° C | 75% | 1017.7 hPa | - | - | - | - |
| 1777474466 | 15° C | 75% | 1018.2 hPa | - | - | - | - |
| 1777473566 | 15° C | 75% | 1017.9 hPa | - | - | - | - |
| 1777472666 | 15° C | 77% | 1018 hPa | - | - | - | - |
| 1777471765 | 15.56° C | 76% | 1018 hPa | - | - | - | - |
| 1777470865 | 15.56° C | 77% | 1018.1 hPa | - | - | - | - |
| 1777469965 | 16.11° C | 73% | 1018 hPa | - | - | - | - |
| 1777469064 | 17.22° C | 69% | 1018.1 hPa | - | - | - | - |
| 1777468164 | 17.78° C | 68% | 1018.2 hPa | - | - | - | - |
| 1777467342 | 17.78° C | 66% | 1018.2 hPa | - | - | - | - |
| 1777467264 | 17.78° C | 66% | 1018.2 hPa | - | - | - | - |
| 1777466400 | 19.44° C | 62% | 1018.3 hPa | - | - | - | - |
| 1777466364 | 19.44° C | 62% | 1018.3 hPa | - | - | - | - |
| 1777465533 | 20° C | 59% | 1018.2 hPa | - | - | - | - |
| 1777465463 | 20° C | 59% | 1018.2 hPa | - | - | - | - |
| 1777464634 | 21.11° C | 55% | 1018.2 hPa | - | - | - | - |
| 1777464562 | 21.11° C | 55% | 1018.2 hPa | - | - | - | - |
| 1777463696 | 21.11° C | 55% | 1018.1 hPa | - | - | - | - |
| 1777463662 | 21.11° C | 55% | 1018.1 hPa | - | - | - | - |
| 1777462792 | 21.67° C | 53% | 1018.3 hPa | - | - | - | - |
| 1777462759 | 21.67° C | 53% | 1018.3 hPa | - | - | - | - |
| 1777461900 | 20° C | 57% | 1018.5 hPa | - | - | - | - |
* Rain since midnight (hover to see other rain measurements)
** Current wind speed in m/s (hover to see current wind gust speed)